createdAt,value
2018-04-18T00:00:40.673Z,30.50
2018-04-18T00:03:07.507Z,31.55
2018-04-18T00:05:34.293Z,30.10
2018-04-18T00:08:01.354Z,29.90
2018-04-18T00:10:28.234Z,33.38
2018-04-18T00:12:56.098Z,33.13
2018-04-18T00:15:22.803Z,28.92
2018-04-18T00:17:49.655Z,29.58
2018-04-18T00:20:16.562Z,30.90
2018-04-18T00:22:43.375Z,30.62
2018-04-18T00:25:10.550Z,31.83
2018-04-18T00:27:37.376Z,30.70
2018-04-18T00:30:04.304Z,29.50
2018-04-18T00:32:31.138Z,28.87
2018-04-18T00:34:58.262Z,28.80
2018-04-18T00:37:25.361Z,31.67
2018-04-18T00:39:53.145Z,29.60
2018-04-18T00:42:20.561Z,32.10
2018-04-18T00:44:47.390Z,32.63
2018-04-18T00:47:14.363Z,29.15
2018-04-18T00:49:41.224Z,32.67
2018-04-18T00:52:08.785Z,31.23
2018-04-18T00:54:36.442Z,31.30
2018-04-18T00:57:03.660Z,31.73
2018-04-18T00:59:32.038Z,35.55
2018-04-18T01:01:58.892Z,30.23
2018-04-18T01:04:25.702Z,32.00
2018-04-18T01:06:52.493Z,29.15
2018-04-18T01:09:19.606Z,30.17
2018-04-18T01:11:46.523Z,30.85
2018-04-18T01:14:13.416Z,31.55
2018-04-18T01:16:40.195Z,32.05
2018-04-18T01:19:07.315Z,30.12
2018-04-18T01:21:34.102Z,30.80
2018-04-18T01:24:00.937Z,30.70
2018-04-18T01:26:28.870Z,33.83
2018-04-18T01:28:56.501Z,29.63
2018-04-18T01:31:23.350Z,32.45
2018-04-18T01:33:51.004Z,32.10
2018-04-18T01:36:18.131Z,32.35
2018-04-18T01:38:45.313Z,30.85
2018-04-18T01:41:12.603Z,31.23
2018-04-18T01:43:39.504Z,36.30
2018-04-18T01:46:06.366Z,30.37
2018-04-18T01:48:33.151Z,29.05
2018-04-18T01:50:59.963Z,31.48
2018-04-18T01:53:26.879Z,36.20
2018-04-18T01:55:53.770Z,30.20
2018-04-18T01:58:20.546Z,37.58
2018-04-18T02:00:47.449Z,33.17
2018-04-18T02:03:14.321Z,37.10
2018-04-18T02:05:41.447Z,36.88
2018-04-18T02:08:08.231Z,29.75
2018-04-18T02:10:35.134Z,29.27
2018-04-18T02:13:02.119Z,32.78
2018-04-18T02:15:29.927Z,28.10
2018-04-18T02:17:56.888Z,32.65
2018-04-18T02:20:23.667Z,29.08
2018-04-18T02:22:50.541Z,32.28
2018-04-18T02:25:17.520Z,33.28
2018-04-18T02:27:44.355Z,27.33
2018-04-18T02:30:11.813Z,28.60
2018-04-18T02:32:38.563Z,30.02
2018-04-18T02:35:05.452Z,30.77
2018-04-18T02:37:32.269Z,29.75
2018-04-18T02:39:59.789Z,29.75
2018-04-18T02:42:26.757Z,30.23
2018-04-18T02:44:53.544Z,29.85
2018-04-18T02:47:20.313Z,28.20
2018-04-18T02:49:47.160Z,29.73
2018-04-18T02:52:13.898Z,30.17
2018-04-18T02:54:40.836Z,31.17
2018-04-18T02:57:08.725Z,28.12
2018-04-18T02:59:35.449Z,28.70
2018-04-18T03:02:02.331Z,31.95
2018-04-18T03:04:29.077Z,28.25
2018-04-18T03:06:55.714Z,31.60
2018-04-18T03:09:22.477Z,32.53
2018-04-18T03:11:49.478Z,31.62
2018-04-18T03:14:16.394Z,42.53
2018-04-18T03:16:43.327Z,39.42
2018-04-18T03:19:10.664Z,33.05
2018-04-18T03:21:38.079Z,37.70
2018-04-18T03:24:04.959Z,34.90
2018-04-18T03:26:31.734Z,37.35
2018-04-18T03:28:58.680Z,35.47
2018-04-18T03:31:25.411Z,35.30
2018-04-18T03:33:52.890Z,36.78
2018-04-18T03:36:20.232Z,35.28
2018-04-18T03:38:47.060Z,37.03
2018-04-18T03:41:14.007Z,32.75
2018-04-18T03:43:40.881Z,29.73
2018-04-18T03:46:08.850Z,31.35
2018-04-18T03:48:37.240Z,29.30
2018-04-18T03:51:04.083Z,35.53
2018-04-18T03:53:30.974Z,33.13
2018-04-18T03:55:57.897Z,32.45
2018-04-18T03:58:24.718Z,29.80
2018-04-18T04:00:51.439Z,31.20
2018-04-18T04:03:18.538Z,33.97
2018-04-18T04:05:46.114Z,41.37
2018-04-18T04:08:12.976Z,33.45
2018-04-18T04:10:39.829Z,35.17
2018-04-18T04:13:06.658Z,35.03
2018-04-18T04:15:33.494Z,32.25
2018-04-18T04:18:06.411Z,31.60
2018-04-18T04:20:39.162Z,35.22
2018-04-18T04:23:11.749Z,36.53
2018-04-18T04:25:39.336Z,33.13
2018-04-18T04:28:06.201Z,32.67
2018-04-18T04:30:33.013Z,31.35
2018-04-18T04:32:59.849Z,35.17
2018-04-18T04:35:26.921Z,30.42
2018-04-18T04:37:54.210Z,32.15
2018-04-18T04:40:21.434Z,32.60
2018-04-18T04:42:48.387Z,36.35
2018-04-18T04:45:15.187Z,35.92
2018-04-18T04:47:41.969Z,29.75
2018-04-18T04:50:08.705Z,33.65
2018-04-18T04:52:35.623Z,34.63
2018-04-18T04:55:02.412Z,32.88
2018-04-18T04:57:29.342Z,34.75
2018-04-18T04:59:56.228Z,35.60
2018-04-18T05:02:23.009Z,36.15
2018-04-18T05:04:51.472Z,34.50
2018-04-18T05:07:22.407Z,33.58
2018-04-18T05:09:49.322Z,34.33
2018-04-18T05:12:19.454Z,34.83
2018-04-18T05:14:46.862Z,35.25
2018-04-18T05:17:13.794Z,35.08
2018-04-18T05:19:40.679Z,36.05
2018-04-18T05:22:07.678Z,34.63
2018-04-18T05:24:34.562Z,33.83
2018-04-18T05:27:01.429Z,36.53
2018-04-18T05:29:28.189Z,36.67
2018-04-18T05:31:55.026Z,35.60
2018-04-18T05:34:21.773Z,37.90
2018-04-18T05:36:49.456Z,36.80
2018-04-18T05:39:16.340Z,31.55
2018-04-18T05:41:43.328Z,33.70
2018-04-18T05:44:10.233Z,32.58
2018-04-18T05:46:37.087Z,30.48
2018-04-18T05:49:04.046Z,32.67
2018-04-18T05:51:31.572Z,31.42
2018-04-18T05:53:58.392Z,32.10
2018-04-18T05:56:25.684Z,37.35
2018-04-18T05:58:52.546Z,34.40
2018-04-18T06:01:20.810Z,32.00
2018-04-18T06:03:47.688Z,35.30
2018-04-18T06:06:14.466Z,33.58
2018-04-18T06:08:41.276Z,32.20
2018-04-18T06:11:08.015Z,30.52
2018-04-18T06:13:35.517Z,32.53
2018-04-18T06:16:02.395Z,31.87
2018-04-18T06:18:29.346Z,30.45
2018-04-18T06:20:56.600Z,32.13
2018-04-18T06:23:28.631Z,34.50
2018-04-18T06:25:58.102Z,33.50
2018-04-18T06:28:24.932Z,40.55
2018-04-18T06:30:52.533Z,33.53
2018-04-18T06:33:19.539Z,34.45
2018-04-18T06:35:46.402Z,35.65
2018-04-18T06:38:13.521Z,32.65
2018-04-18T06:40:40.428Z,31.58
2018-04-18T06:43:09.653Z,27.87
2018-04-18T06:45:36.472Z,27.83
2018-04-18T06:48:03.203Z,28.23
2018-04-18T06:50:30.213Z,26.50
2018-04-18T06:52:56.928Z,1999.90
2018-04-18T06:55:23.872Z,1999.90
2018-04-18T06:57:50.927Z,1999.90
2018-04-18T07:00:17.786Z,1999.90
2018-04-18T07:02:44.564Z,1999.90
2018-04-18T07:05:12.330Z,24.73
2018-04-18T07:07:39.088Z,22.80
2018-04-18T07:10:07.275Z,23.87
2018-04-18T07:12:34.822Z,23.60
2018-04-18T07:15:02.404Z,24.97
2018-04-18T07:17:29.177Z,26.43
2018-04-18T07:19:56.330Z,28.53
2018-04-18T07:22:24.781Z,28.67
2018-04-18T07:24:52.397Z,28.07
2018-04-18T07:27:19.170Z,27.83
2018-04-18T07:29:45.998Z,31.00
2018-04-18T07:32:16.897Z,30.47
2018-04-18T07:34:43.659Z,31.27
2018-04-18T07:37:10.427Z,30.60
2018-04-18T07:39:37.458Z,32.80
2018-04-18T07:42:05.228Z,29.77
2018-04-18T07:44:31.976Z,33.13
2018-04-18T07:46:58.866Z,34.40
2018-04-18T07:49:25.646Z,30.17
2018-04-18T07:51:52.585Z,35.40
2018-04-18T07:54:20.585Z,31.40
2018-04-18T07:56:47.412Z,34.93
2018-04-18T07:59:15.690Z,34.57
2018-04-18T08:01:43.579Z,35.70
2018-04-18T08:04:10.340Z,33.73
2018-04-18T08:06:37.830Z,36.83
2018-04-18T08:09:04.859Z,36.93
2018-04-18T08:11:31.524Z,33.07
2018-04-18T08:13:58.266Z,40.87
2018-04-18T08:16:24.952Z,33.37
2018-04-18T08:18:51.732Z,38.53
2018-04-18T08:21:18.418Z,38.20
2018-04-18T08:23:45.136Z,35.77
2018-04-18T08:26:11.879Z,35.73
2018-04-18T08:28:38.677Z,35.07
2018-04-18T08:31:05.742Z,35.90
2018-04-18T08:33:32.423Z,37.13
2018-04-18T08:35:59.085Z,42.03
2018-04-18T08:38:25.726Z,37.33
2018-04-18T08:40:52.378Z,34.73
2018-04-18T08:43:19.004Z,36.47
2018-04-18T08:45:45.662Z,37.67
2018-04-18T08:48:12.295Z,37.60
2018-04-18T08:50:39.461Z,33.93
2018-04-18T08:53:06.101Z,39.93
2018-04-18T08:55:32.750Z,37.63
2018-04-18T08:57:59.385Z,37.47
2018-04-18T09:00:26.026Z,42.07
2018-04-18T09:02:52.714Z,37.10
2018-04-18T09:05:19.340Z,36.57
2018-04-18T09:07:45.965Z,37.60
2018-04-18T09:10:12.571Z,41.57
2018-04-18T09:12:39.223Z,39.07
2018-04-18T09:15:05.840Z,41.07
2018-04-18T09:17:32.740Z,36.33
2018-04-18T09:19:59.347Z,38.23
2018-04-18T09:22:26.095Z,37.30
2018-04-18T09:24:52.698Z,35.80
2018-04-18T09:27:19.346Z,38.53
2018-04-18T09:29:45.957Z,42.20
2018-04-18T09:32:12.606Z,41.80
2018-04-18T09:34:39.226Z,37.33
2018-04-18T09:37:05.863Z,42.83
2018-04-18T09:39:32.710Z,38.57
2018-04-18T09:41:59.336Z,44.80
2018-04-18T09:44:26.493Z,42.00
2018-04-18T09:46:53.202Z,40.47
2018-04-18T09:49:19.889Z,45.63
2018-04-18T09:51:46.543Z,40.27
2018-04-18T09:54:13.258Z,47.60
2018-04-18T09:56:39.955Z,42.03
2018-04-18T09:59:06.589Z,41.63
2018-04-18T10:01:39.032Z,39.33
2018-04-18T10:04:09.681Z,40.63
2018-04-18T10:06:38.303Z,39.73
2018-04-18T10:09:04.930Z,40.60
2018-04-18T10:11:32.808Z,43.20
2018-04-18T10:13:59.447Z,43.30
2018-04-18T10:16:26.073Z,39.67
2018-04-18T10:18:53.147Z,38.93
2018-04-18T10:21:19.755Z,44.50
2018-04-18T10:23:46.461Z,42.13
2018-04-18T10:26:14.031Z,42.30
2018-04-18T10:28:40.792Z,44.83
2018-04-18T10:31:07.560Z,34.13
2018-04-18T10:33:36.051Z,35.80
2018-04-18T10:36:02.855Z,37.47
2018-04-18T10:38:30.394Z,39.13
2018-04-18T10:40:57.515Z,41.50
2018-04-18T10:43:24.571Z,32.57
2018-04-18T10:45:51.441Z,38.23
2018-04-18T10:48:18.075Z,36.47
2018-04-18T10:50:44.798Z,33.77
2018-04-18T10:53:11.462Z,34.93
2018-04-18T10:55:39.482Z,34.50
2018-04-18T10:58:07.504Z,37.90
2018-04-18T11:00:34.922Z,36.20
2018-04-18T11:03:02.374Z,42.20
2018-04-18T11:05:29.190Z,33.00
2018-04-18T11:07:55.900Z,25.73
2018-04-18T11:10:26.731Z,34.70
2018-04-18T11:12:53.961Z,32.90
2018-04-18T11:15:21.523Z,34.10
2018-04-18T11:17:48.220Z,36.33
2018-04-18T11:20:14.937Z,30.17
2018-04-18T11:22:41.650Z,33.47
2018-04-18T11:25:09.245Z,29.87
2018-04-18T11:27:36.034Z,35.63
2018-04-18T11:30:03.664Z,31.17
2018-04-18T11:32:30.444Z,30.00
2018-04-18T11:34:57.099Z,31.20
2018-04-18T11:37:23.934Z,37.73
2018-04-18T11:39:50.641Z,32.77
2018-04-18T11:42:17.382Z,30.50
2018-04-18T11:44:44.070Z,35.40
2018-04-18T11:47:10.932Z,32.60
2018-04-18T11:49:38.278Z,34.77
2018-04-18T11:52:05.033Z,30.47
2018-04-18T11:54:31.900Z,29.33
2018-04-18T11:56:58.631Z,31.10
2018-04-18T11:59:25.666Z,37.50
2018-04-18T12:01:52.414Z,36.47
2018-04-18T12:04:20.555Z,37.83
2018-04-18T12:06:47.927Z,31.70
2018-04-18T12:09:14.682Z,33.07
2018-04-18T12:11:41.379Z,32.93
2018-04-18T12:14:08.085Z,34.67
2018-04-18T12:16:34.768Z,37.17
2018-04-18T12:19:02.334Z,30.47
2018-04-18T12:21:29.080Z,34.43
2018-04-18T12:23:56.007Z,30.20
2018-04-18T12:26:23.375Z,31.53
2018-04-18T12:28:50.055Z,28.30
2018-04-18T12:31:16.897Z,23.90
2018-04-18T12:33:43.955Z,23.83
2018-04-18T12:36:19.278Z,27.93
2018-04-18T12:38:45.946Z,29.47
2018-04-18T12:41:12.645Z,35.40
2018-04-18T12:43:39.939Z,34.00
2018-04-18T12:46:06.866Z,31.30
2018-04-18T12:48:33.522Z,31.37
2018-04-18T12:51:00.213Z,36.03
2018-04-18T12:53:27.537Z,30.27
2018-04-18T12:55:54.245Z,33.00
2018-04-18T12:58:21.686Z,34.03
2018-04-18T13:00:48.421Z,35.00
2018-04-18T13:03:19.160Z,30.50
2018-04-18T13:05:46.777Z,37.03
2018-04-18T13:08:13.491Z,33.20
2018-04-18T13:10:41.103Z,31.30
2018-04-18T13:13:07.811Z,33.23
2018-04-18T13:15:34.442Z,36.07
2018-04-18T13:18:01.222Z,34.07
2018-04-18T13:20:27.933Z,34.30
2018-04-18T13:22:54.774Z,32.90
2018-04-18T13:25:21.530Z,31.17
2018-04-18T13:27:48.194Z,30.67
2018-04-18T13:30:15.053Z,28.47
2018-04-18T13:32:41.789Z,35.13
2018-04-18T13:35:08.897Z,34.43
2018-04-18T13:37:35.607Z,35.77
2018-04-18T13:40:02.346Z,30.27
2018-04-18T13:42:29.302Z,31.13
2018-04-18T13:44:56.516Z,33.73
2018-04-18T13:47:24.216Z,31.60
2018-04-18T13:49:51.726Z,32.70
2018-04-18T13:52:18.626Z,29.40
2018-04-18T13:54:45.641Z,33.07
2018-04-18T13:57:12.294Z,32.03
2018-04-18T13:59:39.086Z,31.43
2018-04-18T14:02:05.895Z,33.40
2018-04-18T14:04:32.661Z,30.90
2018-04-18T14:06:59.338Z,34.90
2018-04-18T14:09:26.000Z,28.13
2018-04-18T14:11:52.748Z,29.73
2018-04-18T14:14:19.405Z,29.90
2018-04-18T14:16:46.102Z,29.30
2018-04-18T14:19:12.831Z,27.13
2018-04-18T14:21:39.592Z,32.40
2018-04-18T14:24:06.258Z,28.10
2018-04-18T14:26:32.898Z,31.20
2018-04-18T14:28:59.549Z,28.33
2018-04-18T14:31:26.157Z,29.17
2018-04-18T14:33:52.911Z,30.20
2018-04-18T14:36:19.603Z,29.60
2018-04-18T14:38:46.300Z,32.53
2018-04-18T14:41:13.018Z,29.47
2018-04-18T14:43:39.670Z,28.03
2018-04-18T14:46:06.309Z,28.07
2018-04-18T14:48:33.045Z,29.70
2018-04-18T14:51:00.561Z,29.03
2018-04-18T14:53:27.188Z,28.27
2018-04-18T14:55:54.077Z,26.90
2018-04-18T14:58:20.730Z,26.77
2018-04-18T15:00:47.501Z,26.13
2018-04-18T15:03:14.187Z,27.50
2018-04-18T15:05:40.894Z,27.03
2018-04-18T15:08:07.621Z,25.03
2018-04-18T15:10:34.563Z,26.40
2018-04-18T15:13:01.219Z,25.93
2018-04-18T15:15:27.904Z,25.70
2018-04-18T15:17:54.578Z,25.10
2018-04-18T15:20:21.660Z,24.70
2018-04-18T15:22:48.333Z,27.10
2018-04-18T15:25:14.976Z,29.67
2018-04-18T15:27:41.610Z,27.57
2018-04-18T15:30:08.236Z,24.70
2018-04-18T15:32:34.900Z,25.67
2018-04-18T15:35:01.538Z,28.03
2018-04-18T15:37:28.182Z,27.90
2018-04-18T15:39:54.777Z,27.30
2018-04-18T15:42:21.469Z,33.03
2018-04-18T15:44:48.102Z,26.77
2018-04-18T15:47:14.777Z,27.80
2018-04-18T15:49:41.423Z,27.17
2018-04-18T15:52:08.050Z,30.73
2018-04-18T15:54:35.234Z,27.97
2018-04-18T15:57:01.908Z,28.37
2018-04-18T15:59:28.683Z,27.83
2018-04-18T16:01:55.332Z,26.83
2018-04-18T16:04:21.958Z,24.83
2018-04-18T16:06:48.575Z,27.60
2018-04-18T16:09:15.244Z,32.07
2018-04-18T16:11:41.881Z,26.80
2018-04-18T16:14:08.569Z,27.10
2018-04-18T16:16:35.242Z,25.10
2018-04-18T16:19:01.896Z,28.90
2018-04-18T16:21:28.547Z,26.43
2018-04-18T16:23:55.277Z,27.43
2018-04-18T16:26:21.915Z,29.70
2018-04-18T16:28:48.575Z,25.43
2018-04-18T16:31:15.279Z,27.00
2018-04-18T16:33:41.940Z,29.97
2018-04-18T16:36:08.698Z,33.23
2018-04-18T16:38:35.368Z,29.30
2018-04-18T16:41:02.011Z,27.40
2018-04-18T16:43:28.656Z,28.17
2018-04-18T16:45:55.417Z,28.63
2018-04-18T16:48:22.063Z,28.43
2018-04-18T16:50:49.537Z,29.80
2018-04-18T16:53:16.306Z,31.93
2018-04-18T16:55:43.137Z,26.97
2018-04-18T16:58:10.170Z,28.47
2018-04-18T17:00:36.974Z,29.70
2018-04-18T17:03:03.771Z,29.83
2018-04-18T17:05:30.553Z,27.63
2018-04-18T17:07:57.224Z,28.47
2018-04-18T17:10:23.959Z,26.47
2018-04-18T17:12:51.108Z,28.80
2018-04-18T17:15:21.665Z,27.80
2018-04-18T17:17:48.377Z,28.17
2018-04-18T17:20:15.034Z,26.37
2018-04-18T17:22:42.321Z,27.83
2018-04-18T17:25:08.984Z,26.73
2018-04-18T17:27:37.640Z,26.80
2018-04-18T17:30:05.796Z,24.67
2018-04-18T17:32:36.751Z,25.70
2018-04-18T17:35:03.533Z,27.33
2018-04-18T17:37:30.403Z,28.53
2018-04-18T17:39:57.572Z,27.03
2018-04-18T17:42:24.942Z,27.53
2018-04-18T17:44:53.114Z,26.07
2018-04-18T17:47:19.927Z,25.20
2018-04-18T17:49:46.812Z,27.60
2018-04-18T17:52:13.688Z,28.40
2018-04-18T17:54:40.661Z,25.80
2018-04-18T17:57:07.956Z,27.33
2018-04-18T17:59:35.529Z,24.20
2018-04-18T18:02:03.174Z,24.80
2018-04-18T18:04:32.042Z,26.57
2018-04-18T18:07:00.279Z,27.23
2018-04-18T18:09:27.216Z,25.80
2018-04-18T18:11:54.196Z,25.87
2018-04-18T18:14:26.562Z,28.30
2018-04-18T18:16:53.315Z,25.20
2018-04-18T18:19:20.218Z,26.70
2018-04-18T18:21:47.463Z,25.43
2018-04-18T18:24:14.399Z,25.47
2018-04-18T18:26:41.093Z,24.70
2018-04-18T18:29:07.895Z,24.37
2018-04-18T18:31:34.877Z,25.30
2018-04-18T18:34:01.746Z,23.00
2018-04-18T18:36:29.496Z,23.23
2018-04-18T18:38:56.449Z,22.07
2018-04-18T18:41:23.524Z,25.10
2018-04-18T18:43:51.998Z,22.77
2018-04-18T18:46:19.684Z,25.43
2018-04-18T18:48:47.205Z,23.97
2018-04-18T18:51:14.589Z,23.10
2018-04-18T18:53:41.932Z,24.27
2018-04-18T18:56:09.082Z,24.87
2018-04-18T18:58:36.159Z,21.10
2018-04-18T19:01:03.968Z,23.47
2018-04-18T19:03:30.949Z,23.43
2018-04-18T19:05:57.886Z,26.27
2018-04-18T19:08:24.885Z,26.10
2018-04-18T19:10:51.646Z,25.53
2018-04-18T19:13:18.463Z,23.63
2018-04-18T19:15:50.593Z,24.33
2018-04-18T19:18:17.339Z,24.67
2018-04-18T19:20:44.362Z,24.77
2018-04-18T19:23:11.262Z,21.60
2018-04-18T19:25:39.878Z,24.43
2018-04-18T19:28:06.628Z,24.30
2018-04-18T19:30:33.903Z,23.33
2018-04-18T19:33:00.642Z,22.97
2018-04-18T19:35:27.353Z,23.60
2018-04-18T19:37:54.157Z,23.53
2018-04-18T19:40:21.093Z,25.50
2018-04-18T19:42:54.403Z,25.93
2018-04-18T19:45:21.780Z,23.80
2018-04-18T19:47:48.722Z,22.80
2018-04-18T19:50:15.447Z,27.40
2018-04-18T19:52:42.962Z,23.60
2018-04-18T19:55:09.803Z,23.12
2018-04-18T19:57:40.637Z,25.60
2018-04-18T20:00:07.537Z,24.77
2018-04-18T20:02:34.551Z,26.37
2018-04-18T20:05:01.372Z,24.65
2018-04-18T20:07:28.193Z,25.20
2018-04-18T20:09:55.241Z,26.60
2018-04-18T20:12:23.495Z,30.67
2018-04-18T20:14:50.536Z,22.77
2018-04-18T20:17:17.348Z,24.77
2018-04-18T20:19:44.246Z,25.73
2018-04-18T20:22:10.984Z,23.42
2018-04-18T20:24:37.823Z,24.08
2018-04-18T20:27:04.779Z,23.42
2018-04-18T20:29:31.571Z,22.40
2018-04-18T20:31:58.342Z,23.75
2018-04-18T20:34:25.852Z,22.35
2018-04-18T20:36:52.706Z,24.67
2018-04-18T20:39:19.563Z,23.95
2018-04-18T20:41:52.224Z,23.75
2018-04-18T20:44:19.278Z,23.33
2018-04-18T20:46:45.994Z,24.37
2018-04-18T20:49:12.860Z,22.50
2018-04-18T20:51:39.718Z,25.83
2018-04-18T20:54:10.425Z,22.20
2018-04-18T20:56:37.497Z,25.02
2018-04-18T20:59:04.451Z,21.62
2018-04-18T21:01:31.722Z,22.58
2018-04-18T21:03:58.627Z,22.10
2018-04-18T21:06:26.295Z,22.62
2018-04-18T21:08:53.080Z,22.92
2018-04-18T21:11:20.163Z,22.27
2018-04-18T21:13:47.084Z,24.37
2018-04-18T21:16:13.853Z,21.70
2018-04-18T21:18:40.725Z,24.17
2018-04-18T21:21:09.605Z,22.52
2018-04-18T21:23:36.875Z,23.00
2018-04-18T21:26:03.635Z,22.62
2018-04-18T21:28:34.373Z,25.02
2018-04-18T21:31:01.423Z,24.23
2018-04-18T21:33:28.718Z,22.75
2018-04-18T21:35:55.660Z,24.92
2018-04-18T21:38:22.698Z,20.50
2018-04-18T21:40:49.546Z,22.92
2018-04-18T21:43:17.503Z,20.77
2018-04-18T21:45:45.034Z,20.52
2018-04-18T21:48:12.014Z,23.25
2018-04-18T21:50:38.827Z,20.67
2018-04-18T21:53:05.724Z,21.20
2018-04-18T21:55:33.149Z,22.10
2018-04-18T21:58:00.183Z,20.90
2018-04-18T22:00:27.198Z,21.77
2018-04-18T22:02:54.239Z,20.48
2018-04-18T22:05:21.107Z,21.52
2018-04-18T22:07:48.596Z,25.37
2018-04-18T22:10:15.429Z,24.70
2018-04-18T22:12:42.880Z,22.65
2018-04-18T22:15:11.320Z,23.95
2018-04-18T22:17:38.316Z,21.12
2018-04-18T22:20:09.879Z,23.38
2018-04-18T22:22:36.667Z,24.20
2018-04-18T22:25:04.193Z,20.60
2018-04-18T22:27:31.058Z,22.02
2018-04-18T22:39:44.671Z,22.35
2018-04-18T22:42:11.586Z,23.42
2018-04-18T22:44:38.532Z,25.15
2018-04-18T22:47:05.375Z,24.92
2018-04-18T22:49:39.952Z,21.80
2018-04-18T22:52:06.892Z,21.98
2018-04-18T22:54:34.825Z,22.70
2018-04-18T22:57:01.630Z,24.52
2018-04-18T22:59:28.470Z,24.63
2018-04-18T23:01:56.198Z,23.17
2018-04-18T23:04:23.093Z,22.33
2018-04-18T23:06:50.878Z,27.48
2018-04-18T23:09:17.716Z,23.62
2018-04-18T23:11:44.828Z,26.73
2018-04-18T23:14:11.582Z,21.70
2018-04-18T23:16:38.841Z,23.87
2018-04-18T23:19:05.987Z,23.00
2018-04-18T23:21:32.803Z,24.58
2018-04-18T23:24:00.589Z,25.55
2018-04-18T23:26:27.471Z,23.75
2018-04-18T23:28:58.070Z,26.30
2018-04-18T23:31:24.925Z,22.85
2018-04-18T23:33:51.824Z,22.33
2018-04-18T23:36:23.623Z,22.80
2018-04-18T23:38:50.833Z,24.10
2018-04-18T23:41:17.682Z,27.30
2018-04-18T23:43:44.600Z,22.98
2018-04-18T23:46:14.953Z,25.33
2018-04-18T23:48:44.285Z,24.83
2018-04-18T23:51:11.145Z,25.95
2018-04-18T23:53:40.394Z,22.70
2018-04-18T23:56:07.429Z,24.85
2018-04-18T23:58:34.454Z,26.67
